createdAt,value
2022-12-04T00:01:43.443Z,1.30
2022-12-04T00:04:11.193Z,1.20
2022-12-04T00:06:38.346Z,1.30
2022-12-04T00:09:09.766Z,1.20
2022-12-04T00:12:24.935Z,1.20
2022-12-04T00:15:28.646Z,1.30
2022-12-04T00:19:13.514Z,1.40
2022-12-04T00:21:55.574Z,1.30
2022-12-04T00:24:22.974Z,1.30
2022-12-04T00:26:57.271Z,1.30
2022-12-04T00:29:30.545Z,1.30
2022-12-04T00:32:15.207Z,1.40
2022-12-04T00:34:57.822Z,1.40
2022-12-04T00:37:31.421Z,1.40
2022-12-04T00:39:58.461Z,1.30
2022-12-04T00:42:45.275Z,1.20
2022-12-04T00:45:15.291Z,1.30
2022-12-04T00:47:54.457Z,1.30
2022-12-04T00:50:22.231Z,1.30
2022-12-04T00:53:17.097Z,1.30
2022-12-04T00:59:18.507Z,1.30
2022-12-04T01:02:29.628Z,1.40
2022-12-04T01:04:56.800Z,1.30
2022-12-04T01:07:50.725Z,1.30
2022-12-04T01:13:51.902Z,1.40
2022-12-04T01:16:34.756Z,1.30
2022-12-04T01:19:25.238Z,1.40
2022-12-04T01:22:05.410Z,1.30
2022-12-04T01:24:32.566Z,1.30
2022-12-04T01:27:00.220Z,1.30
2022-12-04T01:29:27.850Z,1.20
2022-12-04T01:32:03.727Z,1.20
2022-12-04T01:34:31.416Z,1.20
2022-12-04T01:36:58.976Z,1.40
2022-12-04T01:39:26.227Z,1.20
2022-12-04T01:41:53.221Z,1.20
2022-12-04T01:45:03.377Z,1.10
2022-12-04T01:47:30.309Z,1.20
2022-12-04T01:50:13.507Z,1.20
2022-12-04T01:52:46.231Z,1.20
2022-12-04T01:55:16.599Z,1.30
2022-12-04T01:57:49.432Z,1.30
2022-12-04T02:00:17.612Z,1.40
2022-12-04T02:02:49.065Z,1.40
2022-12-04T02:05:28.778Z,1.30
2022-12-04T02:08:04.902Z,1.40
2022-12-04T02:10:46.311Z,1.30
2022-12-04T02:13:51.759Z,1.30
2022-12-04T02:16:47.118Z,1.30
2022-12-04T02:19:50.703Z,1.30
2022-12-04T02:22:57.488Z,1.30
2022-12-04T02:26:08.879Z,1.30
2022-12-04T02:29:04.749Z,1.30
2022-12-04T02:31:43.537Z,1.30
2022-12-04T02:34:51.195Z,1.40
2022-12-04T02:37:40.901Z,1.40
2022-12-04T02:40:49.394Z,1.30
2022-12-04T02:44:03.357Z,1.40
2022-12-04T02:47:00.872Z,1.30
2022-12-04T02:50:07.106Z,1.30
2022-12-04T02:53:01.164Z,1.30
2022-12-04T02:55:57.180Z,1.40
2022-12-04T02:59:24.376Z,1.30
2022-12-04T03:03:04.064Z,1.30
2022-12-04T03:05:44.045Z,1.30
2022-12-04T03:08:44.171Z,1.30
2022-12-04T03:11:47.480Z,1.20
2022-12-04T03:14:48.505Z,1.30
2022-12-04T03:17:42.146Z,1.20
2022-12-04T03:20:28.770Z,1.20
2022-12-04T03:23:12.972Z,1.20
2022-12-04T03:26:36.751Z,1.20
2022-12-04T03:31:16.764Z,1.10
2022-12-04T03:34:44.798Z,1.10
2022-12-04T03:38:12.637Z,1.30
2022-12-04T03:41:16.861Z,1.30
2022-12-04T03:44:20.807Z,1.10
2022-12-04T03:47:20.527Z,1.20
2022-12-04T03:50:33.261Z,1.20
2022-12-04T03:53:22.716Z,1.10
2022-12-04T03:56:17.587Z,1.20
2022-12-04T03:58:57.333Z,1.20
2022-12-04T04:01:37.879Z,1.20
2022-12-04T04:04:24.332Z,1.10
2022-12-04T04:07:44.520Z,1.20
2022-12-04T04:10:55.209Z,1.10
2022-12-04T04:14:22.425Z,1.20
2022-12-04T04:21:30.253Z,1.10
2022-12-04T04:24:32.525Z,1.00
2022-12-04T04:28:06.198Z,1.20
2022-12-04T04:35:04.609Z,1.10
2022-12-04T04:38:08.304Z,1.00
2022-12-04T04:54:38.482Z,1.00
2022-12-04T04:57:45.143Z,1.00
2022-12-04T05:01:03.028Z,1.00
2022-12-04T05:04:07.591Z,1.00
2022-12-04T05:10:19.849Z,1.00
2022-12-04T05:13:30.367Z,1.00
2022-12-04T05:20:06.841Z,1.00
2022-12-04T05:23:24.577Z,1.00
2022-12-04T05:26:18.563Z,1.00
2022-12-04T05:28:51.881Z,1.00
2022-12-04T05:31:21.932Z,1.00
2022-12-04T05:34:31.631Z,1.00
2022-12-04T05:37:20.288Z,1.10
2022-12-04T05:39:59.075Z,1.20
2022-12-04T05:42:26.490Z,1.10
2022-12-04T05:45:04.707Z,1.20
2022-12-04T05:51:14.338Z,1.10
2022-12-04T05:53:44.872Z,1.20
2022-12-04T05:56:47.340Z,1.30
2022-12-04T05:59:14.639Z,1.20
2022-12-04T06:02:08.531Z,1.10
2022-12-04T06:04:37.568Z,1.00
2022-12-04T06:07:49.301Z,1.00
2022-12-04T06:10:42.655Z,1.00
2022-12-04T06:13:23.449Z,0.90
2022-12-04T06:15:52.032Z,1.00
2022-12-04T06:18:21.829Z,1.10
2022-12-04T06:21:18.909Z,1.10
2022-12-04T06:23:56.426Z,1.20
2022-12-04T06:26:32.528Z,1.20
2022-12-04T06:29:03.107Z,1.10
2022-12-04T06:31:39.255Z,1.00
2022-12-04T06:34:16.282Z,1.20
2022-12-04T06:37:38.644Z,1.10
2022-12-04T06:40:29.485Z,1.00
2022-12-04T06:43:06.493Z,1.10
2022-12-04T06:45:36.569Z,1.20
2022-12-04T06:48:13.129Z,1.10
2022-12-04T06:51:12.239Z,1.10
2022-12-04T06:54:14.991Z,1.10
2022-12-04T06:56:48.949Z,1.10
2022-12-04T07:00:19.513Z,1.10
2022-12-04T07:03:12.718Z,1.10
2022-12-04T07:05:48.705Z,1.10
2022-12-04T07:08:24.321Z,1.20
2022-12-04T07:11:30.938Z,1.20
2022-12-04T07:18:50.750Z,1.10
2022-12-04T07:22:16.514Z,1.00
2022-12-04T07:25:09.658Z,1.00
2022-12-04T07:28:32.080Z,1.10
2022-12-04T07:54:14.603Z,1.00
2022-12-04T07:56:53.359Z,1.10
2022-12-04T07:59:45.407Z,1.00
2022-12-04T08:02:27.326Z,1.00
2022-12-04T08:05:21.884Z,1.00
2022-12-04T08:08:48.165Z,1.00
2022-12-04T08:11:22.666Z,1.10
2022-12-04T08:14:32.122Z,1.00
2022-12-04T08:17:05.802Z,1.00
2022-12-04T08:20:47.674Z,1.00
2022-12-04T08:26:35.287Z,1.00
2022-12-04T08:29:23.631Z,1.20
2022-12-04T08:32:04.698Z,1.10
2022-12-04T08:34:40.852Z,1.20
2022-12-04T08:37:08.142Z,1.30
2022-12-04T08:39:34.995Z,1.20
2022-12-04T08:42:42.756Z,1.10
2022-12-04T08:45:19.435Z,1.20
2022-12-04T08:47:52.063Z,1.10
2022-12-04T08:54:51.045Z,1.20
2022-12-04T08:57:32.944Z,1.20
2022-12-04T09:00:13.429Z,1.20
2022-12-04T09:02:59.934Z,1.20
2022-12-04T09:05:47.027Z,1.20
2022-12-04T09:08:39.011Z,1.20
2022-12-04T09:14:48.371Z,1.20
2022-12-04T09:17:53.000Z,1.30
2022-12-04T09:20:49.490Z,1.20
2022-12-04T09:23:49.373Z,1.20
2022-12-04T09:26:34.586Z,1.20
2022-12-04T09:29:41.063Z,1.20
2022-12-04T09:32:21.059Z,1.30
2022-12-04T09:34:54.345Z,1.30
2022-12-04T09:37:34.866Z,1.40
2022-12-04T09:40:19.020Z,1.40
2022-12-04T09:43:28.313Z,1.50
2022-12-04T09:46:10.572Z,1.50
2022-12-04T09:48:41.651Z,1.50
2022-12-04T09:51:28.073Z,1.60
2022-12-04T09:57:48.726Z,1.50
2022-12-04T10:00:26.665Z,1.50
2022-12-04T10:03:04.464Z,1.50
2022-12-04T10:06:19.796Z,1.50
2022-12-04T10:09:13.376Z,1.50
2022-12-04T10:12:35.114Z,1.50
2022-12-04T10:15:28.899Z,1.50
2022-12-04T10:18:17.835Z,1.60
2022-12-04T10:21:03.129Z,1.60
2022-12-04T10:24:21.076Z,1.60
2022-12-04T10:27:02.563Z,1.60
2022-12-04T10:29:55.221Z,1.60
2022-12-04T10:33:25.120Z,1.60
2022-12-04T10:36:18.429Z,1.60
2022-12-04T10:39:35.832Z,1.70
2022-12-04T10:43:08.703Z,1.50
2022-12-04T10:46:21.953Z,1.60
2022-12-04T10:52:48.606Z,1.60
2022-12-04T10:55:44.570Z,1.70
2022-12-04T11:10:22.742Z,1.80
2022-12-04T11:13:55.888Z,1.70
2022-12-04T11:21:44.540Z,1.80
2022-12-04T11:25:00.819Z,1.80
2022-12-04T11:27:41.227Z,1.80
2022-12-04T11:30:18.972Z,1.70
2022-12-04T11:33:02.829Z,1.80
2022-12-04T11:36:41.301Z,1.70
2022-12-04T11:40:16.405Z,1.80
2022-12-04T12:15:22.471Z,1.90
2022-12-04T12:18:34.324Z,1.90
2022-12-04T12:21:20.729Z,1.90
2022-12-04T12:24:23.629Z,2.00
2022-12-04T12:27:09.819Z,2.10
2022-12-04T12:29:55.254Z,2.10
2022-12-04T12:33:14.729Z,2.10
2022-12-04T12:36:08.648Z,2.00
2022-12-04T12:38:47.326Z,2.00
2022-12-04T12:42:15.567Z,2.00
2022-12-04T12:44:58.850Z,2.00
2022-12-04T12:51:49.597Z,1.90
2022-12-04T12:58:46.547Z,1.90
2022-12-04T13:04:55.343Z,1.80
2022-12-04T13:08:23.489Z,1.90
2022-12-04T13:11:31.322Z,2.00
2022-12-04T13:14:00.955Z,1.90
2022-12-04T13:17:47.175Z,2.00
2022-12-04T13:20:24.189Z,1.90
2022-12-04T13:53:06.086Z,1.90
2022-12-04T13:55:45.912Z,1.80
2022-12-04T13:58:54.053Z,1.80
2022-12-04T14:01:28.966Z,2.00
2022-12-04T14:03:57.944Z,1.90
2022-12-04T14:06:44.215Z,1.90
2022-12-04T14:10:12.682Z,1.90
2022-12-04T14:13:05.519Z,1.80
2022-12-04T14:15:37.268Z,1.90
2022-12-04T14:18:19.611Z,1.80
2022-12-04T14:21:02.190Z,1.70
2022-12-04T14:23:39.618Z,1.70
2022-12-04T14:26:33.111Z,1.80
2022-12-04T14:30:01.272Z,1.80
2022-12-04T14:33:18.153Z,1.80
2022-12-04T14:36:10.453Z,1.70
2022-12-04T14:38:53.113Z,1.70
2022-12-04T14:41:27.027Z,1.70
2022-12-04T14:45:02.643Z,1.70
2022-12-04T14:48:11.369Z,1.70
2022-12-04T14:50:56.966Z,1.70
2022-12-04T14:54:04.711Z,1.70
2022-12-04T15:00:28.030Z,1.70
2022-12-04T15:04:13.585Z,1.70
2022-12-04T15:07:28.669Z,1.70
2022-12-04T15:10:58.856Z,1.60
2022-12-04T15:13:45.302Z,1.60
2022-12-04T15:16:30.397Z,1.60
2022-12-04T16:02:55.668Z,1.50
2022-12-04T16:21:04.337Z,1.50
2022-12-04T16:23:52.839Z,1.50
2022-12-04T16:26:44.907Z,1.40
2022-12-04T16:29:15.337Z,1.40
2022-12-04T16:31:50.171Z,1.50
2022-12-04T16:34:24.493Z,1.40
2022-12-04T16:37:17.146Z,1.40
2022-12-04T16:40:09.321Z,1.40
2022-12-04T16:42:40.271Z,1.40
2022-12-04T16:45:37.925Z,1.50
2022-12-04T16:48:40.086Z,1.40
2022-12-04T16:51:15.991Z,1.40
2022-12-04T16:53:54.349Z,1.40
2022-12-04T16:56:25.189Z,1.40
2022-12-04T16:59:30.357Z,1.50
2022-12-04T17:02:41.197Z,1.40
2022-12-04T17:05:25.107Z,1.40
2022-12-04T17:07:56.136Z,1.40
2022-12-04T17:10:26.355Z,1.40
2022-12-04T17:13:12.383Z,1.30
2022-12-04T17:19:27.994Z,1.30
2022-12-04T17:22:55.270Z,1.30
2022-12-04T17:26:04.301Z,1.30
2022-12-04T17:28:36.669Z,1.30
2022-12-04T17:31:17.866Z,1.30
2022-12-04T17:33:54.784Z,1.20
2022-12-04T17:36:38.692Z,1.20
2022-12-04T17:39:16.470Z,1.20
2022-12-04T17:41:46.665Z,1.10
2022-12-04T17:44:38.705Z,1.10
2022-12-04T17:47:09.369Z,1.10
2022-12-04T17:49:39.854Z,1.20
2022-12-04T17:52:07.451Z,1.10
2022-12-04T17:54:35.481Z,1.10
2022-12-04T17:57:02.983Z,1.10
2022-12-04T17:59:33.254Z,1.10
2022-12-04T18:02:03.326Z,1.10
2022-12-04T18:04:36.785Z,1.10
2022-12-04T18:07:12.138Z,1.10
2022-12-04T18:09:49.501Z,1.10
2022-12-04T18:16:22.899Z,1.00
2022-12-04T18:18:55.473Z,1.10
2022-12-04T18:21:23.032Z,1.10
2022-12-04T18:23:50.959Z,1.10
2022-12-04T18:26:24.360Z,1.10
2022-12-04T18:28:53.282Z,1.20
2022-12-04T18:31:22.912Z,1.20
2022-12-04T18:33:50.419Z,1.30
2022-12-04T18:36:22.782Z,1.10
2022-12-04T18:38:58.438Z,1.10
2022-12-04T18:41:29.381Z,1.10
2022-12-04T18:44:06.500Z,1.20
2022-12-04T18:46:35.769Z,1.20
2022-12-04T18:52:42.725Z,1.10
2022-12-04T18:55:12.891Z,1.20
2022-12-04T18:57:45.813Z,1.20
2022-12-04T19:00:13.476Z,1.20
2022-12-04T19:02:41.212Z,1.20
2022-12-04T19:05:08.506Z,1.20
2022-12-04T19:07:35.759Z,1.10
2022-12-04T19:10:21.296Z,1.20
2022-12-04T19:12:48.626Z,1.20
2022-12-04T19:15:18.705Z,1.30
2022-12-04T19:17:50.668Z,1.10
2022-12-04T19:20:21.454Z,1.20
2022-12-04T19:22:51.355Z,1.20
2022-12-04T19:25:18.330Z,1.20
2022-12-04T19:27:45.372Z,1.20
2022-12-04T19:30:13.214Z,1.20
2022-12-04T19:32:40.437Z,1.20
2022-12-04T19:35:13.177Z,1.20
2022-12-04T19:37:42.211Z,1.20
2022-12-04T19:40:10.554Z,1.20
2022-12-04T19:43:09.794Z,1.20
2022-12-04T19:45:39.887Z,1.20
2022-12-04T19:49:21.100Z,1.30
2022-12-04T19:51:49.456Z,1.20
2022-12-04T19:54:18.482Z,1.20
2022-12-04T19:56:51.111Z,1.10
2022-12-04T19:59:24.303Z,1.20
2022-12-04T20:01:51.890Z,1.20
2022-12-04T20:04:19.502Z,1.30
2022-12-04T20:06:49.385Z,1.10
2022-12-04T20:09:20.767Z,1.10
2022-12-04T20:12:01.508Z,1.10
2022-12-04T20:14:31.614Z,1.40
2022-12-04T20:17:11.961Z,1.30
2022-12-04T20:19:39.655Z,1.30
2022-12-04T20:22:09.263Z,1.30
2022-12-04T20:24:43.155Z,1.30
2022-12-04T20:28:02.074Z,1.30
2022-12-04T20:30:34.789Z,1.30
2022-12-04T20:33:01.920Z,1.40
2022-12-04T20:35:29.138Z,1.40
2022-12-04T20:37:56.560Z,1.40
2022-12-04T20:40:25.006Z,1.40
2022-12-04T20:43:04.443Z,1.50
2022-12-04T20:45:36.772Z,1.30
2022-12-04T20:48:07.179Z,1.30
2022-12-04T20:50:34.988Z,1.40
2022-12-04T20:53:15.245Z,1.40
2022-12-04T20:55:57.243Z,1.40
2022-12-04T20:58:24.836Z,1.40
2022-12-04T21:00:55.391Z,1.50
2022-12-04T21:03:22.403Z,1.50
2022-12-04T21:05:53.201Z,1.40
2022-12-04T21:08:43.127Z,1.50
2022-12-04T21:11:18.211Z,1.40
2022-12-04T21:14:21.928Z,1.40
2022-12-04T21:16:52.865Z,1.30
2022-12-04T21:19:21.961Z,1.30
2022-12-04T21:21:49.978Z,1.40
2022-12-04T21:24:26.821Z,1.40
2022-12-04T21:27:07.022Z,1.40
2022-12-04T21:29:43.353Z,1.40
2022-12-04T21:32:11.271Z,1.40
2022-12-04T21:34:57.297Z,1.40
2022-12-04T21:37:43.341Z,1.40
2022-12-04T21:40:25.856Z,1.30
2022-12-04T21:43:13.579Z,1.40
2022-12-04T21:46:13.543Z,1.40
2022-12-04T21:49:08.649Z,1.30
2022-12-04T21:51:58.413Z,1.30
2022-12-04T21:54:37.991Z,1.40
2022-12-04T21:57:11.801Z,1.30
2022-12-04T21:59:54.187Z,1.30
2022-12-04T22:02:44.554Z,1.40
2022-12-04T22:06:13.581Z,1.30
2022-12-04T22:09:33.083Z,1.40
2022-12-04T22:12:41.158Z,1.30
2022-12-04T22:18:46.549Z,1.30
2022-12-04T22:21:27.898Z,1.30
2022-12-04T22:24:04.755Z,1.30
2022-12-04T22:26:50.011Z,1.30
2022-12-04T22:29:59.235Z,1.30
2022-12-04T22:32:32.418Z,1.30
2022-12-04T22:35:08.935Z,1.40
2022-12-04T22:37:41.104Z,1.50
2022-12-04T22:40:24.738Z,1.40
2022-12-04T22:44:13.962Z,1.40
2022-12-04T22:46:48.862Z,1.40
2022-12-04T22:49:16.358Z,1.30
2022-12-04T22:51:43.718Z,1.30
2022-12-04T22:54:18.753Z,1.30
2022-12-04T22:56:48.813Z,1.40
2022-12-04T22:59:22.703Z,1.40
2022-12-04T23:01:52.553Z,1.30
2022-12-04T23:04:22.337Z,1.30
2022-12-04T23:06:55.651Z,1.30
2022-12-04T23:09:27.964Z,1.40
2022-12-04T23:12:06.792Z,1.50
2022-12-04T23:17:18.338Z,1.30
2022-12-04T23:20:39.033Z,1.20
2022-12-04T23:23:31.243Z,1.20
2022-12-04T23:26:10.670Z,1.20
2022-12-04T23:28:38.962Z,1.30
2022-12-04T23:32:20.135Z,1.30
2022-12-04T23:34:53.252Z,1.30
2022-12-04T23:37:37.467Z,1.20
2022-12-04T23:40:23.370Z,1.20
2022-12-04T23:43:17.422Z,1.20
2022-12-04T23:45:45.096Z,1.20
2022-12-04T23:48:12.881Z,1.20
2022-12-04T23:50:45.363Z,1.30
2022-12-04T23:53:24.974Z,1.30
2022-12-04T23:56:26.921Z,1.20
2022-12-04T23:59:03.824Z,1.10
